sensor_id;sensor_type;location;lat;lon;timestamp;pressure;altitude;pressure_sealevel;temperature;humidity
13800;BME280;6971;50.028;9.258;2023-02-16T00:02:02;100499.00;;;-3.85;100.00
13800;BME280;6971;50.028;9.258;2023-02-16T00:07:02;100499.00;;;-3.85;100.00
13800;BME280;6971;50.028;9.258;2023-02-16T00:12:17;100494.69;;;-3.86;100.00
13800;BME280;6971;50.028;9.258;2023-02-16T00:17:36;100489.34;;;-3.96;100.00
13800;BME280;6971;50.028;9.258;2023-02-16T00:22:37;100486.53;;;-4.07;100.00
13800;BME280;6971;50.028;9.258;2023-02-16T00:27:37;100481.50;;;-4.00;100.00
13800;BME280;6971;50.028;9.258;2023-02-16T00:32:38;100469.47;;;-4.01;100.00
13800;BME280;6971;50.028;9.258;2023-02-16T00:37:40;100468.28;;;-4.16;100.00
13800;BME280;6971;50.028;9.258;2023-02-16T00:42:43;100466.69;;;-4.11;100.00
13800;BME280;6971;50.028;9.258;2023-02-16T00:47:46;100463.28;;;-4.10;100.00
13800;BME280;6971;50.028;9.258;2023-02-16T00:52:47;100459.00;;;-4.09;100.00
13800;BME280;6971;50.028;9.258;2023-02-16T01:02:55;100446.81;;;-4.16;100.00
13800;BME280;6971;50.028;9.258;2023-02-16T01:07:56;100457.06;;;-4.18;100.00
13800;BME280;6971;50.028;9.258;2023-02-16T01:13:16;100458.59;;;-4.28;100.00
13800;BME280;6971;50.028;9.258;2023-02-16T01:18:17;100457.06;;;-4.18;100.00
13800;BME280;6971;50.028;9.258;2023-02-16T01:23:18;100464.50;;;-4.30;100.00
13800;BME280;6971;50.028;9.258;2023-02-16T01:28:21;100462.72;;;-4.35;100.00
13800;BME280;6971;50.028;9.258;2023-02-16T01:33:22;100468.09;;;-4.25;100.00
13800;BME280;6971;50.028;9.258;2023-02-16T01:38:25;100471.25;;;-4.36;100.00
13800;BME280;6971;50.028;9.258;2023-02-16T01:43:45;100454.19;;;-4.32;100.00
13800;BME280;6971;50.028;9.258;2023-02-16T01:48:47;100447.03;;;-4.44;100.00
13800;BME280;6971;50.028;9.258;2023-02-16T01:59:27;100432.34;;;-4.48;100.00
13800;BME280;6971;50.028;9.258;2023-02-16T02:10:16;100432.44;;;-4.45;100.00
13800;BME280;6971;50.028;9.258;2023-02-16T02:15:22;100429.09;;;-4.41;100.00
13800;BME280;6971;50.028;9.258;2023-02-16T02:31:47;100400.13;;;-4.32;100.00
13800;BME280;6971;50.028;9.258;2023-02-16T02:37:10;100406.97;;;-4.33;100.00
13800;BME280;6971;50.028;9.258;2023-02-16T02:47:46;100414.03;;;-4.25;100.00
13800;BME280;6971;50.028;9.258;2023-02-16T02:52:47;100411.25;;;-4.35;100.00
13800;BME280;6971;50.028;9.258;2023-02-16T02:58:04;100406.91;;;-4.36;100.00
13800;BME280;6971;50.028;9.258;2023-02-16T03:03:27;100416.22;;;-4.41;100.00
13800;BME280;6971;50.028;9.258;2023-02-16T03:08:33;100421.13;;;-4.52;100.00
13800;BME280;6971;50.028;9.258;2023-02-16T03:13:37;100418.97;;;-4.35;100.00
13800;BME280;6971;50.028;9.258;2023-02-16T03:18:40;100428.47;;;-4.32;100.00
13800;BME280;6971;50.028;9.258;2023-02-16T03:24:03;100421.59;;;-4.32;100.00
13800;BME280;6971;50.028;9.258;2023-02-16T03:29:26;100427.66;;;-4.29;100.00
13800;BME280;6971;50.028;9.258;2023-02-16T03:34:28;100425.81;;;-4.35;100.00
13800;BME280;6971;50.028;9.258;2023-02-16T03:39:30;100424.63;;;-4.48;100.00
13800;BME280;6971;50.028;9.258;2023-02-16T03:44:31;100423.41;;;-4.27;100.00
13800;BME280;6971;50.028;9.258;2023-02-16T03:49:31;100418.13;;;-4.34;100.00
13800;BME280;6971;50.028;9.258;2023-02-16T03:54:31;100419.84;;;-4.33;100.00
13800;BME280;6971;50.028;9.258;2023-02-16T03:59:32;100417.19;;;-4.36;100.00
13800;BME280;6971;50.028;9.258;2023-02-16T04:04:32;100436.81;;;-4.41;100.00
13800;BME280;6971;50.028;9.258;2023-02-16T04:09:33;100439.13;;;-4.52;100.00
13800;BME280;6971;50.028;9.258;2023-02-16T04:14:33;100440.16;;;-4.45;100.00
13800;BME280;6971;50.028;9.258;2023-02-16T04:19:33;100447.41;;;-4.28;100.00
13800;BME280;6971;50.028;9.258;2023-02-16T04:24:34;100439.81;;;-4.22;100.00
13800;BME280;6971;50.028;9.258;2023-02-16T04:29:34;100437.53;;;-4.10;100.00
13800;BME280;6971;50.028;9.258;2023-02-16T04:34:35;100446.16;;;-4.08;100.00
13800;BME280;6971;50.028;9.258;2023-02-16T04:39:35;100435.19;;;-3.99;100.00
13800;BME280;6971;50.028;9.258;2023-02-16T04:44:35;100432.97;;;-4.22;100.00
13800;BME280;6971;50.028;9.258;2023-02-16T04:49:36;100429.22;;;-3.96;100.00
13800;BME280;6971;50.028;9.258;2023-02-16T04:54:36;100424.63;;;-4.10;100.00
13800;BME280;6971;50.028;9.258;2023-02-16T04:59:37;100427.44;;;-3.99;100.00
13800;BME280;6971;50.028;9.258;2023-02-16T05:04:37;100423.16;;;-4.00;100.00
13800;BME280;6971;50.028;9.258;2023-02-16T05:09:38;100423.88;;;-4.06;100.00
13800;BME280;6971;50.028;9.258;2023-02-16T05:14:38;100423.31;;;-3.92;100.00
13800;BME280;6971;50.028;9.258;2023-02-16T05:19:43;100425.88;;;-3.92;100.00
13800;BME280;6971;50.028;9.258;2023-02-16T05:24:44;100432.66;;;-3.97;100.00
13800;BME280;6971;50.028;9.258;2023-02-16T05:29:44;100436.63;;;-4.12;100.00
13800;BME280;6971;50.028;9.258;2023-02-16T05:34:45;100441.50;;;-4.24;100.00
13800;BME280;6971;50.028;9.258;2023-02-16T05:39:45;100446.69;;;-4.23;100.00
13800;BME280;6971;50.028;9.258;2023-02-16T05:44:46;100434.06;;;-4.49;100.00
13800;BME280;6971;50.028;9.258;2023-02-16T05:49:46;100431.53;;;-4.47;100.00
13800;BME280;6971;50.028;9.258;2023-02-16T05:54:47;100439.31;;;-4.79;100.00
13800;BME280;6971;50.028;9.258;2023-02-16T05:59:47;100442.69;;;-4.82;100.00
13800;BME280;6971;50.028;9.258;2023-02-16T06:04:48;100429.88;;;-4.80;100.00
13800;BME280;6971;50.028;9.258;2023-02-16T06:09:48;100439.50;;;-5.07;100.00
13800;BME280;6971;50.028;9.258;2023-02-16T06:14:48;100432.13;;;-4.93;100.00
13800;BME280;6971;50.028;9.258;2023-02-16T06:19:49;100443.66;;;-5.12;100.00
13800;BME280;6971;50.028;9.258;2023-02-16T06:24:49;100435.06;;;-5.13;100.00
13800;BME280;6971;50.028;9.258;2023-02-16T06:29:49;100442.06;;;-5.07;100.00
13800;BME280;6971;50.028;9.258;2023-02-16T06:34:50;100447.00;;;-5.15;100.00
13800;BME280;6971;50.028;9.258;2023-02-16T06:39:51;100453.56;;;-5.26;100.00
13800;BME280;6971;50.028;9.258;2023-02-16T06:44:51;100447.50;;;-5.28;100.00
13800;BME280;6971;50.028;9.258;2023-02-16T06:49:52;100456.88;;;-5.30;100.00
13800;BME280;6971;50.028;9.258;2023-02-16T06:54:52;100465.72;;;-5.20;100.00
13800;BME280;6971;50.028;9.258;2023-02-16T06:59:52;100469.72;;;-5.30;100.00
13800;BME280;6971;50.028;9.258;2023-02-16T07:04:55;100473.34;;;-5.24;100.00
13800;BME280;6971;50.028;9.258;2023-02-16T07:09:55;100480.00;;;-4.98;100.00
13800;BME280;6971;50.028;9.258;2023-02-16T07:14:56;100484.75;;;-5.14;100.00
13800;BME280;6971;50.028;9.258;2023-02-16T07:19:56;100489.00;;;-5.14;100.00
13800;BME280;6971;50.028;9.258;2023-02-16T07:24:56;100499.50;;;-5.06;100.00
13800;BME280;6971;50.028;9.258;2023-02-16T07:29:57;100495.47;;;-4.96;100.00
13800;BME280;6971;50.028;9.258;2023-02-16T07:34:58;100493.69;;;-4.99;100.00
13800;BME280;6971;50.028;9.258;2023-02-16T07:39:58;100507.72;;;-4.88;100.00
13800;BME280;6971;50.028;9.258;2023-02-16T07:44:58;100504.69;;;-4.71;100.00
13800;BME280;6971;50.028;9.258;2023-02-16T07:49:59;100506.69;;;-4.61;100.00
13800;BME280;6971;50.028;9.258;2023-02-16T07:54:59;100496.78;;;-4.45;100.00
13800;BME280;6971;50.028;9.258;2023-02-16T07:59:59;100502.78;;;-4.09;100.00
13800;BME280;6971;50.028;9.258;2023-02-16T08:05:00;100496.41;;;-3.87;100.00
13800;BME280;6971;50.028;9.258;2023-02-16T08:10:01;100506.09;;;-3.76;100.00
13800;BME280;6971;50.028;9.258;2023-02-16T08:15:01;100495.66;;;-3.41;100.00
13800;BME280;6971;50.028;9.258;2023-02-16T08:20:05;100495.50;;;-3.04;100.00
13800;BME280;6971;50.028;9.258;2023-02-16T08:25:07;100495.88;;;-2.82;100.00
13800;BME280;6971;50.028;9.258;2023-02-16T08:30:07;100489.84;;;-2.84;100.00
13800;BME280;6971;50.028;9.258;2023-02-16T08:35:11;100482.53;;;-2.02;100.00
13800;BME280;6971;50.028;9.258;2023-02-16T08:40:12;100489.72;;;-1.13;100.00
13800;BME280;6971;50.028;9.258;2023-02-16T08:45:12;100487.56;;;-0.71;100.00
13800;BME280;6971;50.028;9.258;2023-02-16T08:50:14;100488.66;;;-0.44;100.00
13800;BME280;6971;50.028;9.258;2023-02-16T08:55:16;100497.28;;;-0.43;100.00
13800;BME280;6971;50.028;9.258;2023-02-16T09:00:16;100486.84;;;-0.54;100.00
13800;BME280;6971;50.028;9.258;2023-02-16T09:05:37;100495.03;;;0.02;100.00
13800;BME280;6971;50.028;9.258;2023-02-16T09:10:37;100491.75;;;0.34;100.00
13800;BME280;6971;50.028;9.258;2023-02-16T09:15:38;100479.06;;;1.03;100.00
13800;BME280;6971;50.028;9.258;2023-02-16T09:20:40;100479.09;;;1.59;100.00
13800;BME280;6971;50.028;9.258;2023-02-16T09:25:41;100492.06;;;1.90;99.56
13800;BME280;6971;50.028;9.258;2023-02-16T09:30:42;100495.53;;;1.89;100.00
13800;BME280;6971;50.028;9.258;2023-02-16T09:35:43;100504.72;;;3.04;95.03
13800;BME280;6971;50.028;9.258;2023-02-16T09:40:44;100490.09;;;2.70;94.01
13800;BME280;6971;50.028;9.258;2023-02-16T09:45:46;100492.41;;;4.28;88.63
13800;BME280;6971;50.028;9.258;2023-02-16T09:50:52;100501.22;;;4.16;86.34
13800;BME280;6971;50.028;9.258;2023-02-16T09:56:26;100497.28;;;4.58;86.64
13800;BME280;6971;50.028;9.258;2023-02-16T10:01:43;100502.97;;;4.93;84.98
13800;BME280;6971;50.028;9.258;2023-02-16T10:12:14;100500.66;;;3.85;90.45
13800;BME280;6971;50.028;9.258;2023-02-16T10:17:22;100498.28;;;4.49;89.53
13800;BME280;6971;50.028;9.258;2023-02-16T10:22:52;100497.69;;;5.54;84.65
13800;BME280;6971;50.028;9.258;2023-02-16T10:28:10;100492.03;;;5.82;83.34
13800;BME280;6971;50.028;9.258;2023-02-16T10:38:44;100504.50;;;7.05;79.45
13800;BME280;6971;50.028;9.258;2023-02-16T10:44:02;100491.81;;;6.86;81.38
13800;BME280;6971;50.028;9.258;2023-02-16T10:49:09;100483.78;;;6.51;81.72
13800;BME280;6971;50.028;9.258;2023-02-16T10:54:18;100486.81;;;6.74;82.29
13800;BME280;6971;50.028;9.258;2023-02-16T10:59:30;100479.22;;;7.40;78.30
13800;BME280;6971;50.028;9.258;2023-02-16T11:04:34;100471.63;;;8.01;75.55
13800;BME280;6971;50.028;9.258;2023-02-16T11:09:36;100464.78;;;6.42;77.67
13800;BME280;6971;50.028;9.258;2023-02-16T11:14:37;100462.94;;;7.99;74.13
13800;BME280;6971;50.028;9.258;2023-02-16T11:19:40;100461.25;;;8.61;71.23
13800;BME280;6971;50.028;9.258;2023-02-16T11:24:46;100438.53;;;8.27;70.83
13800;BME280;6971;50.028;9.258;2023-02-16T11:29:47;100442.25;;;8.49;68.76
13800;BME280;6971;50.028;9.258;2023-02-16T11:34:51;100427.28;;;7.56;71.39
13800;BME280;6971;50.028;9.258;2023-02-16T11:40:01;100420.09;;;7.27;73.05
13800;BME280;6971;50.028;9.258;2023-02-16T11:45:05;100428.38;;;6.72;73.57
13800;BME280;6971;50.028;9.258;2023-02-16T11:50:28;100413.44;;;7.83;72.35
13800;BME280;6971;50.028;9.258;2023-02-16T11:55:30;100413.41;;;8.16;71.37
13800;BME280;6971;50.028;9.258;2023-02-16T12:00:32;100403.03;;;8.13;70.10
13800;BME280;6971;50.028;9.258;2023-02-16T12:11:11;100396.53;;;7.93;71.95
13800;BME280;6971;50.028;9.258;2023-02-16T12:26:53;100379.34;;;7.83;73.71
13800;BME280;6971;50.028;9.258;2023-02-16T12:32:26;100373.53;;;8.65;70.94
13800;BME280;6971;50.028;9.258;2023-02-16T12:48:36;100353.09;;;8.15;71.28
13800;BME280;6971;50.028;9.258;2023-02-16T12:53:48;100352.91;;;8.21;70.46
13800;BME280;6971;50.028;9.258;2023-02-16T12:58:56;100352.97;;;8.48;70.63
13800;BME280;6971;50.028;9.258;2023-02-16T13:04:16;100354.88;;;8.43;70.33
13800;BME280;6971;50.028;9.258;2023-02-16T13:09:22;100346.88;;;8.47;70.99
13800;BME280;6971;50.028;9.258;2023-02-16T13:14:28;100342.03;;;8.33;70.97
13800;BME280;6971;50.028;9.258;2023-02-16T13:19:32;100341.91;;;8.08;72.46
13800;BME280;6971;50.028;9.258;2023-02-16T13:24:59;100331.81;;;8.24;71.68
13800;BME280;6971;50.028;9.258;2023-02-16T13:35:11;100326.69;;;8.19;72.49
13800;BME280;6971;50.028;9.258;2023-02-16T13:45:45;100324.31;;;8.10;72.90
13800;BME280;6971;50.028;9.258;2023-02-16T13:50:55;100312.13;;;8.09;71.89
13800;BME280;6971;50.028;9.258;2023-02-16T13:56:21;100303.59;;;8.31;71.80
13800;BME280;6971;50.028;9.258;2023-02-16T14:06:36;100287.84;;;8.31;72.13
13800;BME280;6971;50.028;9.258;2023-02-16T14:12:19;100281.13;;;8.49;72.66
13800;BME280;6971;50.028;9.258;2023-02-16T14:17:28;100274.16;;;8.48;72.15
13800;BME280;6971;50.028;9.258;2023-02-16T14:38:25;100273.84;;;8.00;77.76
13800;BME280;6971;50.028;9.258;2023-02-16T14:43:32;100267.59;;;8.04;78.94
13800;BME280;6971;50.028;9.258;2023-02-16T14:49:07;100258.19;;;7.99;79.75
13800;BME280;6971;50.028;9.258;2023-02-16T15:04:37;100271.28;;;7.68;84.99
13800;BME280;6971;50.028;9.258;2023-02-16T15:09:40;100269.72;;;7.61;86.62
13800;BME280;6971;50.028;9.258;2023-02-16T15:14:50;100273.00;;;7.36;87.80
13800;BME280;6971;50.028;9.258;2023-02-16T15:19:53;100266.34;;;7.24;88.64
13800;BME280;6971;50.028;9.258;2023-02-16T15:25:06;100263.88;;;7.20;89.88
13800;BME280;6971;50.028;9.258;2023-02-16T15:30:22;100255.97;;;7.21;92.53
13800;BME280;6971;50.028;9.258;2023-02-16T15:35:35;100257.78;;;7.17;96.07
13800;BME280;6971;50.028;9.258;2023-02-16T15:40:36;100256.59;;;6.96;100.00
13800;BME280;6971;50.028;9.258;2023-02-16T15:45:37;100244.84;;;6.76;100.00
13800;BME280;6971;50.028;9.258;2023-02-16T15:50:37;100238.75;;;6.76;100.00
13800;BME280;6971;50.028;9.258;2023-02-16T15:55:43;100241.66;;;6.65;100.00
13800;BME280;6971;50.028;9.258;2023-02-16T16:00:44;100234.38;;;6.40;100.00
13800;BME280;6971;50.028;9.258;2023-02-16T16:06:02;100230.91;;;6.39;100.00
13800;BME280;6971;50.028;9.258;2023-02-16T16:11:05;100225.91;;;6.30;100.00
13800;BME280;6971;50.028;9.258;2023-02-16T16:16:06;100214.31;;;6.01;100.00
13800;BME280;6971;50.028;9.258;2023-02-16T16:21:29;100222.81;;;6.12;100.00
13800;BME280;6971;50.028;9.258;2023-02-16T16:26:53;100232.66;;;5.99;100.00
13800;BME280;6971;50.028;9.258;2023-02-16T16:31:57;100224.09;;;5.91;100.00
13800;BME280;6971;50.028;9.258;2023-02-16T16:36:57;100234.53;;;5.93;100.00
13800;BME280;6971;50.028;9.258;2023-02-16T16:47:22;100227.06;;;5.75;100.00
13800;BME280;6971;50.028;9.258;2023-02-16T16:52:34;100221.34;;;5.56;100.00
13800;BME280;6971;50.028;9.258;2023-02-16T16:57:35;100225.81;;;5.51;100.00
13800;BME280;6971;50.028;9.258;2023-02-16T17:02:36;100222.47;;;5.44;100.00
13800;BME280;6971;50.028;9.258;2023-02-16T17:07:36;100212.97;;;5.40;100.00
13800;BME280;6971;50.028;9.258;2023-02-16T17:12:37;100210.44;;;5.35;100.00
13800;BME280;6971;50.028;9.258;2023-02-16T17:17:37;100214.75;;;5.36;100.00
13800;BME280;6971;50.028;9.258;2023-02-16T17:22:38;100220.19;;;5.26;100.00
13800;BME280;6971;50.028;9.258;2023-02-16T17:27:38;100212.63;;;5.12;100.00
13800;BME280;6971;50.028;9.258;2023-02-16T17:32:38;100216.22;;;5.06;100.00
13800;BME280;6971;50.028;9.258;2023-02-16T17:37:39;100219.94;;;4.94;100.00
13800;BME280;6971;50.028;9.258;2023-02-16T17:42:42;100229.44;;;4.98;100.00
13800;BME280;6971;50.028;9.258;2023-02-16T17:47:43;100229.66;;;4.86;100.00
13800;BME280;6971;50.028;9.258;2023-02-16T17:52:44;100223.72;;;4.76;100.00
13800;BME280;6971;50.028;9.258;2023-02-16T17:57:44;100217.50;;;4.83;100.00
13800;BME280;6971;50.028;9.258;2023-02-16T18:02:45;100235.03;;;4.76;100.00
13800;BME280;6971;50.028;9.258;2023-02-16T18:07:46;100233.19;;;4.81;100.00
13800;BME280;6971;50.028;9.258;2023-02-16T18:12:46;100229.72;;;4.81;100.00
13800;BME280;6971;50.028;9.258;2023-02-16T18:17:46;100234.13;;;4.77;100.00
13800;BME280;6971;50.028;9.258;2023-02-16T18:22:47;100234.25;;;4.71;100.00
13800;BME280;6971;50.028;9.258;2023-02-16T18:27:47;100232.50;;;4.70;100.00
13800;BME280;6971;50.028;9.258;2023-02-16T18:32:47;100223.97;;;4.62;100.00
13800;BME280;6971;50.028;9.258;2023-02-16T18:37:48;100215.28;;;4.60;100.00
13800;BME280;6971;50.028;9.258;2023-02-16T18:42:48;100220.47;;;4.63;100.00
13800;BME280;6971;50.028;9.258;2023-02-16T18:47:49;100214.47;;;4.56;100.00
13800;BME280;6971;50.028;9.258;2023-02-16T18:52:49;100198.81;;;4.56;100.00
13800;BME280;6971;50.028;9.258;2023-02-16T18:57:50;100204.19;;;4.47;100.00
13800;BME280;6971;50.028;9.258;2023-02-16T19:02:50;100200.81;;;4.40;100.00
13800;BME280;6971;50.028;9.258;2023-02-16T19:07:50;100207.00;;;4.33;100.00
13800;BME280;6971;50.028;9.258;2023-02-16T19:12:51;100201.97;;;4.20;100.00
13800;BME280;6971;50.028;9.258;2023-02-16T19:17:51;100213.31;;;4.19;100.00
13800;BME280;6971;50.028;9.258;2023-02-16T19:22:52;100219.44;;;4.16;100.00
13800;BME280;6971;50.028;9.258;2023-02-16T19:27:53;100219.59;;;4.05;100.00
13800;BME280;6971;50.028;9.258;2023-02-16T19:32:54;100216.03;;;4.13;100.00
13800;BME280;6971;50.028;9.258;2023-02-16T19:37:54;100214.13;;;4.21;100.00
13800;BME280;6971;50.028;9.258;2023-02-16T19:42:55;100212.34;;;4.26;100.00
13800;BME280;6971;50.028;9.258;2023-02-16T19:47:55;100218.41;;;4.25;100.00
13800;BME280;6971;50.028;9.258;2023-02-16T19:52:55;100222.66;;;4.33;100.00
13800;BME280;6971;50.028;9.258;2023-02-16T19:57:56;100224.50;;;4.27;100.00
13800;BME280;6971;50.028;9.258;2023-02-16T20:02:56;100227.00;;;4.34;100.00
13800;BME280;6971;50.028;9.258;2023-02-16T20:07:56;100232.22;;;4.34;100.00
13800;BME280;6971;50.028;9.258;2023-02-16T20:12:57;100222.66;;;4.33;100.00
13800;BME280;6971;50.028;9.258;2023-02-16T20:17:57;100217.44;;;4.33;100.00
13800;BME280;6971;50.028;9.258;2023-02-16T20:22:57;100212.19;;;4.36;100.00
13800;BME280;6971;50.028;9.258;2023-02-16T20:27:58;100201.75;;;4.36;100.00
13800;BME280;6971;50.028;9.258;2023-02-16T20:32:58;100193.97;;;4.33;100.00
13800;BME280;6971;50.028;9.258;2023-02-16T20:37:58;100187.84;;;4.34;100.00
13800;BME280;6971;50.028;9.258;2023-02-16T20:43:02;100186.13;;;4.33;100.00
13800;BME280;6971;50.028;9.258;2023-02-16T20:48:02;100189.63;;;4.31;100.00
13800;BME280;6971;50.028;9.258;2023-02-16T20:53:03;100187.81;;;4.37;100.00
13800;BME280;6971;50.028;9.258;2023-02-16T20:58:03;100192.06;;;4.42;100.00
13800;BME280;6971;50.028;9.258;2023-02-16T21:03:04;100180.09;;;4.30;100.00
13800;BME280;6971;50.028;9.258;2023-02-16T21:08:04;100178.25;;;4.36;100.00
13800;BME280;6971;50.028;9.258;2023-02-16T21:13:04;100179.00;;;4.44;100.00
13800;BME280;6971;50.028;9.258;2023-02-16T21:18:07;100168.66;;;4.36;100.00
13800;BME280;6971;50.028;9.258;2023-02-16T21:23:09;100171.19;;;4.42;100.00
13800;BME280;6971;50.028;9.258;2023-02-16T21:28:09;100160.84;;;4.35;100.00
13800;BME280;6971;50.028;9.258;2023-02-16T21:33:10;100152.03;;;4.42;100.00
13800;BME280;6971;50.028;9.258;2023-02-16T21:38:10;100158.22;;;4.36;100.00
13800;BME280;6971;50.028;9.258;2023-02-16T21:43:11;100145.06;;;4.44;100.00
13800;BME280;6971;50.028;9.258;2023-02-16T21:48:11;100147.72;;;4.41;100.00
13800;BME280;6971;50.028;9.258;2023-02-16T21:53:30;100142.59;;;4.35;100.00
13800;BME280;6971;50.028;9.258;2023-02-16T21:58:32;100142.38;;;4.47;100.00
13800;BME280;6971;50.028;9.258;2023-02-16T22:03:32;100138.84;;;4.51;100.00
13800;BME280;6971;50.028;9.258;2023-02-16T22:08:34;100131.78;;;4.56;100.00
13800;BME280;6971;50.028;9.258;2023-02-16T22:13:37;100124.84;;;4.54;100.00
13800;BME280;6971;50.028;9.258;2023-02-16T22:18:38;100129.16;;;4.56;100.00
13800;BME280;6971;50.028;9.258;2023-02-16T22:23:39;100130.22;;;4.46;100.00
13800;BME280;6971;50.028;9.258;2023-02-16T22:28:39;100142.19;;;4.58;100.00
13800;BME280;6971;50.028;9.258;2023-02-16T22:33:40;100135.31;;;4.54;100.00
13800;BME280;6971;50.028;9.258;2023-02-16T22:38:41;100145.72;;;4.55;100.00
13800;BME280;6971;50.028;9.258;2023-02-16T22:43:41;100143.03;;;4.62;100.00
13800;BME280;6971;50.028;9.258;2023-02-16T22:48:42;100146.44;;;4.64;100.00
13800;BME280;6971;50.028;9.258;2023-02-16T22:53:43;100142.81;;;4.73;100.00
13800;BME280;6971;50.028;9.258;2023-02-16T22:58:45;100135.09;;;4.66;100.00
13800;BME280;6971;50.028;9.258;2023-02-16T23:03:47;100139.38;;;4.70;100.00
13800;BME280;6971;50.028;9.258;2023-02-16T23:08:53;100140.22;;;4.73;100.00
13800;BME280;6971;50.028;9.258;2023-02-16T23:13:54;100145.44;;;4.73;100.00
13800;BME280;6971;50.028;9.258;2023-02-16T23:18:57;100140.91;;;4.81;100.00
13800;BME280;6971;50.028;9.258;2023-02-16T23:23:58;100144.44;;;4.78;100.00
13800;BME280;6971;50.028;9.258;2023-02-16T23:29:00;100150.59;;;4.76;100.00
13800;BME280;6971;50.028;9.258;2023-02-16T23:34:02;100160.19;;;4.75;100.00
13800;BME280;6971;50.028;9.258;2023-02-16T23:39:06;100160.97;;;4.80;100.00
13800;BME280;6971;50.028;9.258;2023-02-16T23:44:07;100154.06;;;4.76;100.00
13800;BME280;6971;50.028;9.258;2023-02-16T23:49:08;100155.66;;;4.83;100.00
13800;BME280;6971;50.028;9.258;2023-02-16T23:54:08;100151.09;;;4.95;100.00
13800;BME280;6971;50.028;9.258;2023-02-16T23:59:10;100144.97;;;4.96;100.00
